New Iberia, LA

9:07 AM CST on January 29, 2015 (GMT -0600)
Acadiana Regional | Change Station
CLOSE
Current Station
Airport
Location: New Iberia,
Elevation: 23 ft
Nearby Weather Stations

Elev 23 ft 30.04 °N, 91.88 °W | Updated 14 minutes ago

Fog
Fog
56 °F
Feels Like 56 °F
N
0
Wind Variable Wind from North

Today
High -- | Low -- °F
--% Chance of Precip.
Yesterday
High -- | Low -- °F
Precip. -- in
6:59 AM 5:41 PM
Waxing Gibbous, 75% visible
Pressure 30.26 in
Visibility 7.0 miles
Clouds Mostly Cloudy 1700 ft
Dew Point 55 °F
Humidity 97%
Rainfall 0.00 in
Snow Depth Not available.
UV 1 out of 12
Pollen 7.60 out of 12
Air Quality Not available.
Flu Activity Not available.
METAR KARA 291453Z 00000KT 7SM BKN017 13/13 A3026 RMK AO2 SLP246 T01330128 52024

More Conditions Fewer Conditions

Pressure 30.26 in
Visibility 7.0 miles
Clouds Mostly Cloudy 1700 ft
Dew Point 55 °F
Humidity 97%
Rainfall 0.00 in
Snow Depth Not available.
UV 1 out of 12
Pollen 7.60 out of 12
Air Quality Not available.
Flu Activity Not available.
METAR KARA 291453Z 00000KT 7SM BKN017 13/13 A3026 RMK AO2 SLP246 T01330128 52024

More Conditions Fewer Conditions

10-Day Weather Forecast

Almanac

Astronomy

Jan. 29, 2015 Rise Set
Actual Time
Civil Twilight
Nautical Twilight
Astronomical Twilight
Moon
Length of Visible Light
Length of Day
Tomorrow will be .
, % of the Moon is Illuminated

Today's Extremes

State Highs State Lows

Community

WunderPhotos

Upload Photos

1,791,450 photos uploaded!

WunderBlogs® & News

Nearby

Air Quality

  Air Quality AQ Index Pollutant
Not available.

Snow Depth

Station Depth Elevation

Earthquake Activity

City Distance Mag. Time & Date
Minimum magnitude displayed is 2.5.

Coastal Water Temperatures

Place Temperature

Nearby Weather Stations